createdAt,value
2018-05-17T00:00:48.096Z,97.79
2018-05-17T00:03:15.535Z,97.91
2018-05-17T00:05:42.568Z,97.77
2018-05-17T00:08:09.590Z,97.88
2018-05-17T00:10:36.739Z,97.86
2018-05-17T00:13:03.759Z,97.81
2018-05-17T00:15:30.758Z,97.87
2018-05-17T00:17:57.821Z,97.68
2018-05-17T00:20:24.804Z,97.76
2018-05-17T00:22:52.024Z,97.54
2018-05-17T00:25:19.125Z,97.40
2018-05-17T00:27:46.355Z,97.38
2018-05-17T00:30:13.421Z,97.36
2018-05-17T00:32:40.635Z,97.24
2018-05-17T00:35:07.699Z,97.42
2018-05-17T00:37:34.709Z,97.45
2018-05-17T00:40:01.819Z,97.39
2018-05-17T00:42:29.036Z,97.39
2018-05-17T00:44:56.212Z,97.63
2018-05-17T00:47:24.052Z,97.74
2018-05-17T00:49:51.064Z,97.88
2018-05-17T00:52:18.230Z,97.99
2018-05-17T00:54:45.187Z,98.07
2018-05-17T00:57:12.559Z,98.21
2018-05-17T00:59:39.949Z,98.13
2018-05-17T01:02:06.931Z,98.24
2018-05-17T01:04:33.945Z,98.26
2018-05-17T01:07:00.959Z,98.27
2018-05-17T01:09:28.091Z,98.22
2018-05-17T01:11:55.120Z,98.18
2018-05-17T01:14:22.645Z,98.29
2018-05-17T01:16:49.683Z,98.58
2018-05-17T01:19:16.716Z,98.63
2018-05-17T01:21:43.705Z,98.59
2018-05-17T01:24:10.714Z,98.43
2018-05-17T01:26:37.771Z,98.29
2018-05-17T01:29:05.321Z,98.42
2018-05-17T01:31:32.342Z,98.35
2018-05-17T01:34:00.009Z,98.14
2018-05-17T01:36:27.099Z,98.25
2018-05-17T01:38:54.395Z,98.04
2018-05-17T01:41:21.815Z,97.75
2018-05-17T01:43:48.851Z,97.67
2018-05-17T01:46:15.924Z,97.71
2018-05-17T01:48:42.959Z,97.81
2018-05-17T01:51:09.956Z,97.76
2018-05-17T01:53:36.970Z,97.81
2018-05-17T01:56:04.049Z,97.74
2018-05-17T01:58:31.093Z,97.90
2018-05-17T02:00:58.084Z,97.98
2018-05-17T02:03:25.135Z,97.94
2018-05-17T02:05:52.195Z,98.31
2018-05-17T02:08:19.261Z,98.54
2018-05-17T02:10:46.269Z,98.69
2018-05-17T02:13:13.444Z,98.93
2018-05-17T02:15:40.532Z,99.38
2018-05-17T02:18:07.551Z,99.25
2018-05-17T02:20:35.231Z,98.96
2018-05-17T02:23:02.237Z,98.93
2018-05-17T02:25:29.260Z,99.19
2018-05-17T02:27:56.355Z,99.28
2018-05-17T02:30:23.370Z,99.19
2018-05-17T02:32:50.480Z,98.84
2018-05-17T02:35:18.012Z,98.78
2018-05-17T02:37:45.018Z,98.83
2018-05-17T02:40:12.264Z,99.19
2018-05-17T02:42:39.281Z,99.29
2018-05-17T02:45:06.302Z,99.24
2018-05-17T02:47:33.313Z,99.33
2018-05-17T02:50:00.324Z,99.40
2018-05-17T02:52:28.000Z,99.48
2018-05-17T02:54:54.997Z,99.33
2018-05-17T02:57:22.115Z,99.42
2018-05-17T02:59:49.206Z,99.42
2018-05-17T03:02:16.935Z,99.50
2018-05-17T03:04:44.155Z,99.35
2018-05-17T03:07:11.910Z,99.18
2018-05-17T03:09:39.723Z,99.19
2018-05-17T03:12:06.752Z,99.42
2018-05-17T03:14:33.997Z,99.58
2018-05-17T03:17:01.087Z,99.58
2018-05-17T03:19:28.266Z,99.45
2018-05-17T03:21:55.321Z,99.42
2018-05-17T03:24:22.312Z,99.38
2018-05-17T03:26:49.533Z,99.43
2018-05-17T03:29:16.549Z,99.38
2018-05-17T03:31:43.570Z,99.46
2018-05-17T03:34:10.628Z,99.68
2018-05-17T03:36:37.615Z,99.67
2018-05-17T03:39:04.816Z,99.57
2018-05-17T03:41:31.820Z,99.32
2018-05-17T03:43:59.602Z,99.37
2018-05-17T03:46:27.433Z,99.35
2018-05-17T03:48:54.497Z,99.28
2018-05-17T03:51:21.511Z,99.26
2018-05-17T03:53:48.516Z,99.20
2018-05-17T03:56:15.580Z,99.23
2018-05-17T03:58:43.950Z,99.25
2018-05-17T04:01:16.798Z,99.14
2018-05-17T04:03:49.557Z,99.25
2018-05-17T04:09:11.692Z,99.35
2018-05-17T04:11:38.763Z,99.33
2018-05-17T04:14:05.805Z,99.23
2018-05-17T04:16:32.931Z,99.23
2018-05-17T04:19:00.116Z,99.19
2018-05-17T04:21:27.157Z,99.18
2018-05-17T04:23:54.405Z,99.20
2018-05-17T04:26:21.571Z,99.26
2018-05-17T04:28:48.682Z,99.44
2018-05-17T04:31:15.782Z,99.33
2018-05-17T04:33:42.933Z,99.15
2018-05-17T04:36:10.011Z,99.12
2018-05-17T04:38:37.006Z,98.90
2018-05-17T04:41:04.109Z,98.40
2018-05-17T04:43:31.132Z,98.35
2018-05-17T04:45:58.257Z,98.31
2018-05-17T04:48:25.411Z,98.29
2018-05-17T04:50:52.419Z,98.23
2018-05-17T04:53:19.453Z,98.20
2018-05-17T04:55:46.458Z,98.20
2018-05-17T04:58:13.611Z,98.18
2018-05-17T05:00:40.813Z,97.97
2018-05-17T05:03:08.055Z,98.09
2018-05-17T05:05:35.675Z,97.86
2018-05-17T05:08:03.818Z,97.67
2018-05-17T05:10:30.827Z,97.56
2018-05-17T05:12:57.861Z,97.24
2018-05-17T05:15:25.710Z,97.04
2018-05-17T05:17:52.775Z,97.05
2018-05-17T05:20:20.032Z,97.00
2018-05-17T05:22:47.295Z,97.08
2018-05-17T05:25:14.561Z,97.12
2018-05-17T05:27:41.692Z,96.67
2018-05-17T05:30:08.759Z,96.33
2018-05-17T05:32:36.316Z,96.23
2018-05-17T05:35:03.776Z,95.96
2018-05-17T05:37:30.799Z,96.14
2018-05-17T05:39:57.761Z,96.15
2018-05-17T05:42:24.771Z,96.27
2018-05-17T05:44:51.780Z,95.99
2018-05-17T05:47:18.846Z,95.63
2018-05-17T05:49:45.853Z,95.23
2018-05-17T05:52:13.702Z,94.79
2018-05-17T05:54:40.828Z,93.43
2018-05-17T05:57:08.383Z,92.08
2018-05-17T05:59:35.392Z,90.58
2018-05-17T06:02:02.735Z,89.78
2018-05-17T06:04:29.897Z,89.95
2018-05-17T06:06:57.148Z,90.45
2018-05-17T06:09:24.328Z,90.91
2018-05-17T06:11:51.432Z,91.48
2018-05-17T06:14:18.469Z,91.99
2018-05-17T06:16:45.467Z,92.41
2018-05-17T06:19:12.574Z,92.43
2018-05-17T06:21:39.737Z,92.05
2018-05-17T06:24:06.801Z,91.58
2018-05-17T06:26:33.975Z,91.93
2018-05-17T06:29:00.981Z,91.52
2018-05-17T06:31:27.977Z,90.36
2018-05-17T06:33:55.113Z,91.12
2018-05-17T06:36:22.128Z,90.80
2018-05-17T06:38:49.392Z,90.35
2018-05-17T06:41:16.442Z,90.59
2018-05-17T06:43:43.541Z,90.06
2018-05-17T06:46:10.647Z,89.11
2018-05-17T06:48:37.968Z,87.73
2018-05-17T06:51:05.213Z,87.03
2018-05-17T06:53:32.361Z,87.21
2018-05-17T06:55:59.397Z,88.07
2018-05-17T06:58:27.036Z,88.83
2018-05-17T07:00:54.371Z,88.67
2018-05-17T07:03:21.342Z,89.43
2018-05-17T07:05:48.378Z,90.18
2018-05-17T07:08:15.628Z,90.12
2018-05-17T07:10:42.631Z,90.64
2018-05-17T07:13:10.398Z,90.54
2018-05-17T07:15:38.011Z,90.72
2018-05-17T07:18:05.340Z,90.78
2018-05-17T07:20:32.334Z,91.19
2018-05-17T07:22:59.378Z,91.39
2018-05-17T07:25:26.386Z,91.39
2018-05-17T07:27:53.391Z,91.61
2018-05-17T07:30:20.472Z,91.71
2018-05-17T07:32:47.722Z,92.12
2018-05-17T07:35:14.956Z,91.45
2018-05-17T07:37:42.106Z,90.85
2018-05-17T07:40:09.153Z,90.88
2018-05-17T07:42:36.157Z,91.03
2018-05-17T07:45:03.264Z,91.03
2018-05-17T07:47:30.407Z,91.16
2018-05-17T07:49:57.727Z,90.69
2018-05-17T07:52:24.918Z,90.12
2018-05-17T07:54:52.026Z,89.79
2018-05-17T07:57:19.207Z,89.64
2018-05-17T07:59:46.414Z,89.42
2018-05-17T08:02:13.414Z,89.59
2018-05-17T08:04:41.177Z,88.70
2018-05-17T08:07:08.209Z,88.22
2018-05-17T08:09:35.239Z,87.77
2018-05-17T08:12:02.367Z,87.99
2018-05-17T08:14:29.367Z,87.98
2018-05-17T08:16:56.377Z,86.47
2018-05-17T08:19:23.412Z,85.76
2018-05-17T08:21:50.453Z,85.73
2018-05-17T08:24:17.648Z,85.54
2018-05-17T08:26:44.783Z,85.54
2018-05-17T08:29:11.802Z,85.94
2018-05-17T08:31:39.344Z,86.92
2018-05-17T08:34:06.651Z,87.03
2018-05-17T08:36:33.845Z,86.96
2018-05-17T08:39:00.803Z,87.42
2018-05-17T08:41:27.784Z,87.35
2018-05-17T08:43:54.787Z,87.16
2018-05-17T08:46:21.975Z,87.12
2018-05-17T08:48:49.007Z,87.26
2018-05-17T08:51:16.210Z,87.68
2018-05-17T08:53:45.008Z,88.00
2018-05-17T08:56:12.157Z,88.80
2018-05-17T08:58:39.308Z,88.49
2018-05-17T09:01:06.619Z,88.29
2018-05-17T09:03:33.804Z,89.08
2018-05-17T09:06:00.952Z,89.21
2018-05-17T09:08:28.119Z,89.15
2018-05-17T09:10:55.146Z,88.80
2018-05-17T09:13:22.147Z,88.84
2018-05-17T09:15:49.247Z,89.42
2018-05-17T09:18:16.333Z,90.01
2018-05-17T09:20:43.461Z,90.36
2018-05-17T09:23:10.452Z,89.96
2018-05-17T09:25:37.442Z,90.35
2018-05-17T09:28:04.594Z,90.02
2018-05-17T09:30:31.835Z,89.59
2018-05-17T09:32:58.822Z,89.27
2018-05-17T09:35:26.050Z,88.29
2018-05-17T09:37:53.090Z,88.09
2018-05-17T09:40:20.125Z,88.24
2018-05-17T09:42:47.265Z,87.88
2018-05-17T09:45:14.402Z,87.49
2018-05-17T09:47:41.666Z,86.33
2018-05-17T09:50:09.058Z,87.07
2018-05-17T09:52:36.477Z,86.07
2018-05-17T09:55:03.720Z,85.34
2018-05-17T09:57:30.808Z,85.13
2018-05-17T09:59:57.817Z,84.04
2018-05-17T10:02:25.171Z,83.48
2018-05-17T10:04:52.253Z,82.41
2018-05-17T10:07:19.297Z,81.45
2018-05-17T10:09:46.303Z,80.83
2018-05-17T10:12:13.528Z,80.47
2018-05-17T10:14:40.607Z,81.83
2018-05-17T10:17:08.248Z,81.26
2018-05-17T10:19:35.337Z,81.87
2018-05-17T10:22:02.673Z,81.83
2018-05-17T10:24:29.904Z,80.14
2018-05-17T10:26:57.146Z,80.65
2018-05-17T10:29:24.463Z,80.12
2018-05-17T10:31:51.655Z,80.55
2018-05-17T10:34:18.790Z,80.74
2018-05-17T10:36:45.920Z,79.60
2018-05-17T10:39:13.723Z,80.63
2018-05-17T10:41:40.868Z,79.36
2018-05-17T10:44:08.108Z,79.38
2018-05-17T10:46:35.196Z,78.88
2018-05-17T10:49:02.447Z,79.17
2018-05-17T10:51:29.522Z,80.45
2018-05-17T10:53:56.595Z,80.93
2018-05-17T10:56:23.633Z,81.72
2018-05-17T10:58:50.667Z,80.83
2018-05-17T11:01:17.912Z,80.70
2018-05-17T11:03:45.080Z,80.52
2018-05-17T11:06:12.151Z,78.50
2018-05-17T11:08:39.154Z,75.95
2018-05-17T11:11:06.329Z,73.71
2018-05-17T11:13:33.394Z,73.62
2018-05-17T11:16:00.687Z,73.04
2018-05-17T11:18:27.940Z,73.42
2018-05-17T11:20:55.009Z,75.00
2018-05-17T11:23:22.115Z,75.57
2018-05-17T11:25:49.447Z,75.45
2018-05-17T11:28:16.398Z,76.45
2018-05-17T11:30:43.438Z,76.70
2018-05-17T11:33:10.621Z,77.09
2018-05-17T11:35:37.846Z,75.87
2018-05-17T11:38:05.154Z,76.36
2018-05-17T11:40:32.399Z,77.41
2018-05-17T11:42:59.443Z,77.03
2018-05-17T11:45:26.784Z,76.69
2018-05-17T11:47:53.806Z,77.68
2018-05-17T11:50:21.811Z,77.73
2018-05-17T11:52:48.892Z,77.05
2018-05-17T11:55:15.914Z,75.67
2018-05-17T11:57:43.021Z,75.59
2018-05-17T12:00:10.124Z,75.79
2018-05-17T12:02:37.363Z,75.33
2018-05-17T12:05:04.389Z,74.40
2018-05-17T12:07:31.648Z,74.12
2018-05-17T12:09:58.668Z,72.53
2018-05-17T12:12:25.983Z,74.35
2018-05-17T12:14:53.917Z,73.28
2018-05-17T12:17:21.040Z,73.35
2018-05-17T12:19:48.064Z,74.12
2018-05-17T12:22:15.129Z,73.25
2018-05-17T12:24:42.174Z,74.53
2018-05-17T12:27:09.238Z,74.51
2018-05-17T12:29:36.289Z,73.88
2018-05-17T12:32:03.365Z,74.57
2018-05-17T12:34:30.421Z,74.27
2018-05-17T12:36:57.605Z,74.16
2018-05-17T12:39:24.613Z,74.04
2018-05-17T12:41:51.642Z,74.10
2018-05-17T12:44:18.658Z,72.76
2018-05-17T12:46:45.725Z,72.62
2018-05-17T12:49:12.844Z,74.19
2018-05-17T12:51:40.527Z,74.55
2018-05-17T12:54:07.932Z,74.17
2018-05-17T12:56:35.584Z,73.34
2018-05-17T12:59:02.665Z,73.84
2018-05-17T13:01:30.123Z,74.53
2018-05-17T13:03:57.214Z,70.79
2018-05-17T13:06:24.414Z,69.93
2018-05-17T13:08:51.486Z,69.14
2018-05-17T13:11:18.505Z,67.92
2018-05-17T13:13:45.687Z,66.65
2018-05-17T13:16:12.718Z,66.10
2018-05-17T13:18:40.564Z,65.37
2018-05-17T13:21:07.572Z,65.36
2018-05-17T13:23:34.971Z,66.34
2018-05-17T13:26:02.055Z,68.51
2018-05-17T13:28:29.191Z,67.95
2018-05-17T13:30:56.591Z,68.99
2018-05-17T13:33:23.780Z,70.51
2018-05-17T13:35:50.909Z,69.66
2018-05-17T13:38:17.907Z,69.20
2018-05-17T13:40:44.963Z,68.10
2018-05-17T13:43:12.243Z,66.78
2018-05-17T13:45:39.404Z,66.08
2018-05-17T13:48:06.563Z,65.90
2018-05-17T13:50:33.561Z,66.45
2018-05-17T13:53:00.700Z,66.78
2018-05-17T13:55:27.822Z,67.17
2018-05-17T13:57:54.989Z,66.98
2018-05-17T14:00:22.460Z,67.03
2018-05-17T14:02:49.507Z,64.73
2018-05-17T14:05:16.530Z,65.36
2018-05-17T14:07:44.639Z,65.39
2018-05-17T14:10:11.664Z,65.59
2018-05-17T14:12:38.680Z,65.85
2018-05-17T14:15:05.768Z,66.04
2018-05-17T14:17:32.783Z,65.86
2018-05-17T14:19:59.934Z,65.45
2018-05-17T14:22:26.938Z,64.38
2018-05-17T14:24:53.950Z,64.67
2018-05-17T14:27:20.946Z,62.89
2018-05-17T14:29:48.084Z,61.82
2018-05-17T14:32:15.104Z,62.39
2018-05-17T14:34:42.125Z,63.31
2018-05-17T14:37:09.201Z,63.99
2018-05-17T14:39:36.225Z,64.80
2018-05-17T14:42:03.305Z,64.97
2018-05-17T14:44:30.834Z,63.28
2018-05-17T14:46:57.907Z,62.74
2018-05-17T14:49:25.069Z,61.59
2018-05-17T14:51:52.135Z,60.84
2018-05-17T14:54:19.264Z,60.88
2018-05-17T14:56:46.404Z,60.99
2018-05-17T14:59:13.553Z,61.74
2018-05-17T15:01:40.999Z,62.73
2018-05-17T15:04:08.085Z,62.27
2018-05-17T15:06:35.223Z,62.82
2018-05-17T15:09:02.450Z,61.89
2018-05-17T15:11:29.505Z,62.12
2018-05-17T15:13:56.561Z,63.06
2018-05-17T15:16:23.572Z,63.30
2018-05-17T15:18:50.644Z,64.93
2018-05-17T15:21:17.735Z,64.89
2018-05-17T15:23:45.439Z,65.15
2018-05-17T15:26:12.460Z,66.27
2018-05-17T15:28:39.492Z,66.61
2018-05-17T15:31:07.091Z,65.54
2018-05-17T15:33:34.369Z,65.98
2018-05-17T15:36:01.400Z,64.15
2018-05-17T15:38:28.447Z,64.09
2018-05-17T15:40:55.504Z,64.55
2018-05-17T15:43:22.486Z,63.61
2018-05-17T15:45:49.654Z,63.35
2018-05-17T15:48:16.798Z,62.15
2018-05-17T15:50:43.837Z,62.92
2018-05-17T15:53:10.891Z,63.09
2018-05-17T15:55:38.001Z,64.07
2018-05-17T15:58:05.041Z,64.64
2018-05-17T16:00:32.064Z,64.55
2018-05-17T16:02:59.109Z,64.24
2018-05-17T16:05:26.151Z,64.26
2018-05-17T16:07:53.209Z,63.03
2018-05-17T16:10:20.216Z,62.59
2018-05-17T16:12:47.241Z,62.59
2018-05-17T16:15:14.551Z,62.47
2018-05-17T16:17:41.544Z,63.42
2018-05-17T16:20:08.674Z,63.42
2018-05-17T16:22:35.700Z,64.60
2018-05-17T16:25:02.710Z,65.09
2018-05-17T16:27:29.764Z,65.65
2018-05-17T16:29:56.783Z,65.53
2018-05-17T16:32:23.852Z,64.97
2018-05-17T16:34:50.996Z,66.42
2018-05-17T16:37:18.008Z,68.14
2018-05-17T16:39:45.051Z,68.72
2018-05-17T16:42:12.201Z,68.51
2018-05-17T16:44:39.305Z,71.28
2018-05-17T16:47:06.347Z,72.83
2018-05-17T16:49:33.395Z,73.00
2018-05-17T16:52:00.472Z,70.68
2018-05-17T16:54:27.774Z,70.42
2018-05-17T16:56:54.935Z,70.26
2018-05-17T16:59:22.151Z,69.94
2018-05-17T17:01:49.241Z,68.79
2018-05-17T17:04:16.480Z,69.34
2018-05-17T17:06:44.323Z,70.36
2018-05-17T17:09:11.266Z,70.53
2018-05-17T17:11:38.546Z,71.08
2018-05-17T17:14:05.556Z,71.37
2018-05-17T17:16:32.666Z,69.33
2018-05-17T17:18:59.753Z,70.77
2018-05-17T17:21:26.771Z,71.29
2018-05-17T17:23:53.929Z,72.55
2018-05-17T17:26:21.176Z,72.96
2018-05-17T17:28:49.224Z,75.39
2018-05-17T17:31:16.506Z,77.23
2018-05-17T17:33:43.617Z,77.26
2018-05-17T17:36:10.642Z,79.07
2018-05-17T17:38:37.683Z,80.68
2018-05-17T17:41:04.770Z,81.55
2018-05-17T17:43:31.821Z,76.22
2018-05-17T17:45:58.842Z,73.85
2018-05-17T17:48:26.150Z,71.58
2018-05-17T17:50:53.217Z,72.30
2018-05-17T17:53:20.290Z,72.60
2018-05-17T17:55:47.376Z,73.84
2018-05-17T17:58:14.401Z,74.96
2018-05-17T18:00:41.468Z,76.25
2018-05-17T18:03:08.617Z,75.30
2018-05-17T18:05:35.695Z,76.98
2018-05-17T18:08:02.791Z,77.60
2018-05-17T18:10:30.967Z,78.26
2018-05-17T18:12:58.110Z,77.24
2018-05-17T18:15:25.803Z,77.62
2018-05-17T18:17:52.839Z,77.56
2018-05-17T18:20:20.066Z,77.81
2018-05-17T18:22:47.263Z,79.43
2018-05-17T18:25:14.470Z,80.19
2018-05-17T18:27:41.672Z,80.32
2018-05-17T18:30:09.067Z,80.94
2018-05-17T18:32:36.165Z,82.14
2018-05-17T18:35:03.283Z,82.18
2018-05-17T18:37:30.304Z,82.08
2018-05-17T18:39:57.370Z,82.36
2018-05-17T18:42:24.401Z,83.84
2018-05-17T18:44:51.609Z,84.26
2018-05-17T18:47:18.778Z,84.48
2018-05-17T18:49:45.926Z,85.39
2018-05-17T18:52:12.987Z,85.53
2018-05-17T18:54:40.079Z,86.34
2018-05-17T18:57:07.113Z,86.49
2018-05-17T18:59:34.115Z,86.61
2018-05-17T19:02:01.211Z,87.13
2018-05-17T19:04:28.317Z,87.15
2018-05-17T19:06:55.356Z,87.45
2018-05-17T19:09:22.481Z,87.86
2018-05-17T19:11:49.876Z,88.51
2018-05-17T19:14:17.078Z,88.78
2018-05-17T19:16:44.117Z,89.23
2018-05-17T19:19:11.875Z,89.27
2018-05-17T19:21:39.022Z,89.60
2018-05-17T19:24:06.137Z,90.46
2018-05-17T19:26:33.185Z,91.01
2018-05-17T19:29:00.326Z,91.01
2018-05-17T19:31:27.520Z,91.14
2018-05-17T19:33:54.599Z,91.16
2018-05-17T19:36:21.688Z,91.48
2018-05-17T19:38:48.896Z,91.70
2018-05-17T19:41:16.896Z,91.79
2018-05-17T19:43:44.033Z,92.14
2018-05-17T19:46:11.173Z,93.20
2018-05-17T19:48:38.399Z,93.34
2018-05-17T19:51:05.465Z,92.92
2018-05-17T19:53:32.763Z,92.37
2018-05-17T19:56:01.946Z,92.20
2018-05-17T19:58:29.011Z,92.18
2018-05-17T20:00:56.152Z,92.50
2018-05-17T20:03:23.352Z,93.18
2018-05-17T20:05:50.867Z,93.46
2018-05-17T20:08:17.948Z,93.57
2018-05-17T20:10:46.287Z,93.50
2018-05-17T20:13:14.098Z,93.20
2018-05-17T20:15:41.931Z,92.98
2018-05-17T20:18:09.013Z,93.59
2018-05-17T20:20:36.066Z,94.04
2018-05-17T20:23:03.712Z,93.99
2018-05-17T20:25:30.857Z,93.65
2018-05-17T20:27:58.068Z,93.11
2018-05-17T20:30:25.147Z,93.28
2018-05-17T20:32:52.213Z,93.68
2018-05-17T20:35:19.370Z,93.91
2018-05-17T20:37:46.454Z,94.12
2018-05-17T20:40:13.595Z,94.51
2018-05-17T20:42:40.691Z,94.13
2018-05-17T20:45:07.995Z,93.91
2018-05-17T20:47:35.084Z,93.91
2018-05-17T20:50:02.453Z,93.98
2018-05-17T20:52:29.788Z,94.20
2018-05-17T20:54:57.010Z,94.82
2018-05-17T20:57:24.051Z,94.90
2018-05-17T20:59:51.441Z,94.73
2018-05-17T21:02:19.221Z,94.75
2018-05-17T21:04:46.311Z,94.89
2018-05-17T21:07:17.051Z,94.99
2018-05-17T21:09:44.132Z,95.17
2018-05-17T21:12:11.172Z,95.31
2018-05-17T21:14:38.215Z,95.57
2018-05-17T21:17:05.255Z,95.82
2018-05-17T21:19:32.485Z,96.10
2018-05-17T21:21:59.651Z,96.16
2018-05-17T21:24:26.654Z,96.14
2018-05-17T21:26:53.867Z,96.09
2018-05-17T21:29:21.027Z,96.16
2018-05-17T21:31:48.163Z,96.35
2018-05-17T21:34:15.220Z,96.29
2018-05-17T21:36:42.202Z,96.24
2018-05-17T21:39:09.936Z,96.27
2018-05-17T21:41:37.063Z,96.30
2018-05-17T21:44:04.166Z,96.34
2018-05-17T21:46:31.388Z,96.29
2018-05-17T21:48:58.437Z,96.12
2018-05-17T21:51:25.614Z,95.95
2018-05-17T21:53:52.971Z,95.82
2018-05-17T21:56:19.964Z,95.71
2018-05-17T21:58:46.967Z,95.81
2018-05-17T22:04:30.724Z,96.08
2018-05-17T22:06:58.339Z,96.01
2018-05-17T22:09:25.942Z,95.79
2018-05-17T22:11:53.646Z,95.66
2018-05-17T22:14:21.207Z,95.74
2018-05-17T22:16:48.692Z,96.17
2018-05-17T22:19:16.394Z,96.31
2018-05-17T22:21:43.418Z,96.27
2018-05-17T22:24:10.446Z,96.18
2018-05-17T22:26:37.488Z,96.41
2018-05-17T22:29:04.681Z,96.53
2018-05-17T22:31:31.794Z,96.63
2018-05-17T22:33:59.269Z,96.51
2018-05-17T22:36:26.719Z,96.50
2018-05-17T22:38:54.208Z,96.49
2018-05-17T22:41:21.703Z,96.39
2018-05-17T22:43:48.707Z,96.49
2018-05-17T22:46:16.126Z,96.73
2018-05-17T22:48:43.911Z,96.86
2018-05-17T22:51:11.126Z,97.02
2018-05-17T22:53:38.143Z,97.33
2018-05-17T22:56:05.257Z,97.35
2018-05-17T22:58:33.469Z,97.56
2018-05-17T23:01:00.677Z,97.21
2018-05-17T23:03:27.811Z,96.88
2018-05-17T23:05:54.839Z,96.79
2018-05-17T23:08:21.996Z,96.78
2018-05-17T23:10:49.312Z,96.88
2018-05-17T23:13:16.395Z,97.06
2018-05-17T23:15:43.902Z,97.07
2018-05-17T23:18:11.196Z,97.02
2018-05-17T23:20:38.260Z,97.17
2018-05-17T23:23:05.304Z,97.27
2018-05-17T23:25:32.456Z,97.35
2018-05-17T23:27:59.706Z,97.39
2018-05-17T23:30:26.914Z,97.37
2018-05-17T23:32:54.207Z,97.36
2018-05-17T23:35:21.426Z,97.31
2018-05-17T23:37:48.904Z,97.29
2018-05-17T23:40:21.827Z,97.29
2018-05-17T23:42:48.912Z,97.02
2018-05-17T23:45:16.313Z,96.71
2018-05-17T23:47:43.368Z,96.95
2018-05-17T23:50:10.438Z,96.92
2018-05-17T23:52:37.563Z,96.76
2018-05-17T23:55:04.639Z,96.63
2018-05-17T23:57:31.748Z,96.82
2018-05-17T23:59:58.892Z,96.92
